createdAt,value
2022-12-15T00:02:10.390Z,96320.03
2022-12-15T00:04:55.701Z,96334.44
2022-12-15T00:07:40.733Z,96332.25
2022-12-15T00:10:26.061Z,96310.63
2022-12-15T00:13:11.341Z,96320.66
2022-12-15T00:15:56.335Z,96318.88
2022-12-15T00:18:41.192Z,96339.25
2022-12-15T00:21:26.113Z,96328.47
2022-12-15T00:24:10.961Z,96309.63
2022-12-15T00:26:55.974Z,96309.97
2022-12-15T00:29:40.877Z,96261.78
2022-12-15T00:32:26.155Z,96235.06
2022-12-15T00:35:11.073Z,96240.84
2022-12-15T00:37:55.984Z,96290.44
2022-12-15T00:40:22.517Z,96230.19
2022-12-15T00:42:49.561Z,96298.72
2022-12-15T00:45:16.645Z,96311.31
2022-12-15T00:47:43.233Z,96230.38
2022-12-15T00:50:28.386Z,96310.34
2022-12-15T00:53:13.921Z,96310.06
2022-12-15T00:55:59.067Z,96231.28
2022-12-15T00:58:43.889Z,96313.09
2022-12-15T01:01:29.318Z,96226.16
2022-12-15T01:04:14.660Z,96296.81
2022-12-15T01:06:59.874Z,96293.34
2022-12-15T01:09:45.268Z,96273.19
2022-12-15T01:12:30.446Z,96177.66
2022-12-15T01:15:15.395Z,96276.38
2022-12-15T01:18:00.270Z,96295.59
2022-12-15T01:20:26.907Z,96293.31
2022-12-15T01:22:55.399Z,96298.78
2022-12-15T01:25:24.825Z,96272.22
2022-12-15T01:27:52.179Z,96264.44
2022-12-15T01:30:22.541Z,96272.94
2022-12-15T01:32:49.756Z,96278.06
2022-12-15T01:35:17.695Z,96283.53
2022-12-15T01:37:44.888Z,96258.28
2022-12-15T01:40:36.292Z,96241.66
2022-12-15T01:43:03.279Z,96246.56
2022-12-15T01:45:29.796Z,96258.03
2022-12-15T01:48:00.709Z,96259.63
2022-12-15T01:50:29.624Z,96218.63
2022-12-15T01:52:56.218Z,96228.00
2022-12-15T01:55:28.219Z,96253.44
2022-12-15T01:57:58.599Z,96250.59
2022-12-15T02:00:25.285Z,96253.59
2022-12-15T02:02:52.163Z,96262.34
2022-12-15T02:05:20.481Z,96270.22
2022-12-15T02:07:47.044Z,96267.44
2022-12-15T02:10:16.629Z,96276.97
2022-12-15T02:12:52.110Z,96280.69
2022-12-15T02:15:21.632Z,96291.94
2022-12-15T02:18:14.419Z,96277.97
2022-12-15T02:21:01.677Z,96271.41
2022-12-15T02:23:56.131Z,96283.72
2022-12-15T02:26:40.908Z,96289.03
2022-12-15T02:29:26.190Z,96263.19
2022-12-15T02:32:07.694Z,96266.38
2022-12-15T02:34:49.793Z,96235.47
2022-12-15T02:37:23.430Z,96243.97
2022-12-15T02:39:50.045Z,96245.47
2022-12-15T02:42:16.670Z,96239.53
2022-12-15T02:44:59.532Z,96261.03
2022-12-15T02:47:47.632Z,96263.78
2022-12-15T02:50:29.668Z,96251.66
2022-12-15T02:53:08.186Z,96197.19
2022-12-15T02:55:50.414Z,96209.16
2022-12-15T02:58:45.098Z,96252.28
2022-12-15T03:01:34.733Z,96148.84
2022-12-15T03:04:03.343Z,96257.66
2022-12-15T03:06:29.922Z,96252.44
2022-12-15T03:08:56.480Z,96241.94
2022-12-15T03:11:23.253Z,96262.31
2022-12-15T03:13:50.547Z,96254.69
2022-12-15T03:16:17.204Z,96247.72
2022-12-15T03:18:43.858Z,96226.78
2022-12-15T03:21:10.504Z,96236.91
2022-12-15T03:23:37.060Z,96219.09
2022-12-15T03:26:03.674Z,96223.19
2022-12-15T03:28:30.201Z,96233.53
2022-12-15T03:30:56.790Z,96204.13
2022-12-15T03:33:23.383Z,96199.97
2022-12-15T03:35:51.049Z,96204.31
2022-12-15T03:38:18.605Z,96211.03
2022-12-15T03:40:45.190Z,96202.09
2022-12-15T03:43:11.866Z,96120.09
2022-12-15T03:45:38.442Z,96185.63
2022-12-15T03:48:05.142Z,96214.94
2022-12-15T03:50:31.758Z,96181.56
2022-12-15T03:53:00.814Z,96203.34
2022-12-15T03:55:28.948Z,96202.28
2022-12-15T03:57:56.132Z,96141.75
2022-12-15T04:00:27.359Z,96198.56
2022-12-15T04:02:54.166Z,96201.13
2022-12-15T04:05:26.855Z,96215.56
2022-12-15T04:07:54.914Z,96219.00
2022-12-15T04:10:22.663Z,96209.00
2022-12-15T04:12:49.682Z,96216.00
2022-12-15T04:15:16.321Z,96227.75
2022-12-15T04:17:43.313Z,96215.47
2022-12-15T04:20:10.484Z,96203.16
2022-12-15T04:22:45.114Z,96168.63
2022-12-15T04:25:33.979Z,96221.91
2022-12-15T04:28:19.645Z,96152.53
2022-12-15T04:31:09.674Z,96212.72
2022-12-15T04:33:57.839Z,96197.88
2022-12-15T04:36:42.979Z,96193.16
2022-12-15T04:39:28.426Z,96181.41
2022-12-15T04:42:16.554Z,96192.44
2022-12-15T04:45:02.137Z,96179.28
2022-12-15T04:47:48.033Z,96158.75
2022-12-15T04:50:32.918Z,96201.03
2022-12-15T04:53:29.608Z,96179.44
2022-12-15T04:56:18.628Z,96194.06
2022-12-15T04:59:04.536Z,96201.41
2022-12-15T05:01:49.745Z,96224.25
2022-12-15T05:04:34.940Z,96218.03
2022-12-15T05:07:20.076Z,96221.75
2022-12-15T05:10:08.247Z,96178.53
2022-12-15T05:12:56.214Z,96239.78
2022-12-15T05:15:41.591Z,96230.03
2022-12-15T05:18:26.574Z,96242.78
2022-12-15T05:21:11.539Z,96244.19
2022-12-15T05:23:56.226Z,96244.44
2022-12-15T05:26:41.161Z,96242.41
2022-12-15T05:29:26.177Z,96242.41
2022-12-15T05:31:52.880Z,96240.22
2022-12-15T05:34:24.201Z,96221.31
2022-12-15T05:36:51.083Z,96263.41
2022-12-15T05:39:17.897Z,96248.59
2022-12-15T05:41:44.816Z,96256.59
2022-12-15T05:44:11.592Z,96250.13
2022-12-15T05:46:38.578Z,96258.88
2022-12-15T05:49:06.677Z,96259.41
2022-12-15T05:51:34.101Z,96253.91
2022-12-15T05:54:00.664Z,96234.97
2022-12-15T05:56:28.315Z,96263.47
2022-12-15T05:58:57.344Z,96260.97
2022-12-15T06:01:25.744Z,96260.97
2022-12-15T06:03:52.373Z,96231.50
2022-12-15T06:06:20.083Z,96235.34
2022-12-15T06:08:46.737Z,96233.88
2022-12-15T06:11:18.522Z,96264.81
2022-12-15T06:13:45.553Z,96172.41
2022-12-15T06:16:12.200Z,96287.09
2022-12-15T06:18:42.714Z,96182.47
2022-12-15T06:21:18.024Z,96267.47
2022-12-15T06:23:45.276Z,96294.47
2022-12-15T06:26:18.630Z,96295.34
2022-12-15T06:28:45.267Z,96300.84
2022-12-15T06:31:12.846Z,96301.03
2022-12-15T06:33:40.163Z,96316.97
2022-12-15T06:36:13.329Z,96318.97
2022-12-15T06:38:43.560Z,96284.97
2022-12-15T06:41:15.408Z,96318.81
2022-12-15T06:43:42.578Z,96277.97
2022-12-15T06:46:09.460Z,95982.88
2022-12-15T06:48:36.555Z,96342.81
2022-12-15T06:51:13.297Z,96332.06
2022-12-15T06:53:53.788Z,96347.41
2022-12-15T06:56:28.809Z,96357.06
2022-12-15T06:58:59.327Z,96363.28
2022-12-15T07:01:26.481Z,96371.78
2022-12-15T07:03:53.656Z,96375.41
2022-12-15T07:06:20.630Z,96367.00
2022-12-15T07:08:53.329Z,96117.34
2022-12-15T07:11:21.771Z,96303.56
2022-12-15T07:13:52.853Z,96381.00
2022-12-15T07:16:21.618Z,96386.13
2022-12-15T07:18:48.514Z,96375.59
2022-12-15T07:21:15.301Z,96358.66
2022-12-15T07:23:58.095Z,96365.16
2022-12-15T07:26:25.888Z,96376.00
2022-12-15T07:28:53.978Z,96328.19
2022-12-15T07:31:21.954Z,96388.75
2022-12-15T07:33:49.200Z,96300.50
2022-12-15T07:36:15.799Z,96390.97
2022-12-15T07:38:42.951Z,96315.66
2022-12-15T07:41:09.880Z,96306.19
2022-12-15T07:43:37.460Z,96379.34
2022-12-15T07:46:05.280Z,96328.66
2022-12-15T07:48:32.478Z,96378.69
2022-12-15T07:51:07.389Z,96393.63
2022-12-15T07:53:37.087Z,96396.94
2022-12-15T07:56:07.801Z,96393.91
2022-12-15T07:58:35.588Z,96379.94
2022-12-15T08:01:05.188Z,96378.72
2022-12-15T08:03:32.917Z,96386.16
2022-12-15T08:06:05.409Z,96391.84
2022-12-15T08:08:33.268Z,96386.34
2022-12-15T08:11:11.220Z,96404.16
2022-12-15T08:14:02.178Z,96356.16
2022-12-15T08:16:25.333Z,96388.66
2022-12-15T08:18:51.999Z,96351.09
2022-12-15T08:21:18.831Z,96351.84
2022-12-15T08:23:45.726Z,96427.59
2022-12-15T08:26:15.135Z,96344.31
2022-12-15T08:28:42.749Z,96388.13
2022-12-15T08:31:12.129Z,96391.53
2022-12-15T08:33:39.325Z,96384.06
2022-12-15T08:36:08.798Z,96396.56
2022-12-15T08:38:36.839Z,96380.91
2022-12-15T08:41:13.243Z,96390.31
2022-12-15T08:43:47.588Z,96388.28
2022-12-15T08:46:16.138Z,96354.00
2022-12-15T08:48:43.197Z,96388.41
2022-12-15T08:51:10.300Z,96389.72
2022-12-15T08:53:37.090Z,96105.31
2022-12-15T08:56:09.613Z,96339.84
2022-12-15T08:58:36.811Z,96362.28
2022-12-15T09:01:05.685Z,96237.31
2022-12-15T09:03:33.983Z,96393.31
2022-12-15T09:06:12.269Z,96377.09
2022-12-15T09:08:39.111Z,96384.75
2022-12-15T09:11:05.916Z,96240.03
2022-12-15T09:13:33.289Z,96385.75
2022-12-15T09:16:10.288Z,96382.59
2022-12-15T09:18:37.815Z,96337.31
2022-12-15T09:21:07.238Z,96367.59
2022-12-15T09:23:35.421Z,96330.25
2022-12-15T09:26:10.193Z,96378.06
2022-12-15T09:28:40.123Z,96384.50
2022-12-15T09:31:09.770Z,96391.72
2022-12-15T09:33:37.009Z,96370.25
2022-12-15T09:36:04.667Z,96372.63
2022-12-15T09:38:33.394Z,96362.81
2022-12-15T09:41:09.171Z,96351.38
2022-12-15T09:43:47.562Z,96382.31
2022-12-15T09:47:01.317Z,96381.50
2022-12-15T09:49:52.561Z,96389.44
2022-12-15T09:52:29.095Z,96404.09
2022-12-15T09:54:57.979Z,96398.53
2022-12-15T09:57:37.048Z,96404.50
2022-12-15T10:00:21.615Z,96341.81
2022-12-15T10:03:21.250Z,96398.50
2022-12-15T10:09:18.451Z,96404.44
2022-12-15T10:11:51.056Z,96406.03
2022-12-15T10:14:27.245Z,96391.69
2022-12-15T10:17:21.617Z,96402.03
2022-12-15T10:20:19.054Z,96399.19
2022-12-15T10:22:50.302Z,96400.34
2022-12-15T10:25:30.488Z,96405.09
2022-12-15T10:28:15.966Z,96407.81
2022-12-15T10:30:51.508Z,96411.41
2022-12-15T10:33:21.249Z,96417.44
2022-12-15T10:35:48.982Z,96417.72
2022-12-15T10:38:40.492Z,96398.63
2022-12-15T10:41:15.262Z,96353.47
2022-12-15T10:43:44.500Z,96411.25
2022-12-15T10:46:15.177Z,96412.50
2022-12-15T10:48:44.084Z,96416.09
2022-12-15T10:51:44.070Z,96403.31
2022-12-15T10:54:16.377Z,96217.97
2022-12-15T10:56:50.220Z,96387.44
2022-12-15T10:59:25.466Z,96414.44
2022-12-15T11:01:52.697Z,96407.34
2022-12-15T11:04:29.606Z,96419.28
2022-12-15T11:07:02.000Z,96341.59
2022-12-15T11:09:37.484Z,96381.16
2022-12-15T11:12:37.338Z,96382.44
2022-12-15T11:15:23.902Z,96387.56
2022-12-15T11:17:59.751Z,96397.00
2022-12-15T11:20:35.543Z,96353.13
2022-12-15T11:23:13.278Z,96401.56
2022-12-15T11:25:54.916Z,96295.34
2022-12-15T11:28:48.579Z,96369.69
2022-12-15T11:31:27.096Z,96391.03
2022-12-15T11:33:54.754Z,96430.19
2022-12-15T11:36:50.521Z,96379.75
2022-12-15T11:39:32.589Z,96328.25
2022-12-15T11:42:30.965Z,96405.09
2022-12-15T11:45:24.074Z,96422.53
2022-12-15T11:48:00.012Z,96398.56
2022-12-15T11:50:30.372Z,96412.34
2022-12-15T11:53:17.869Z,96421.25
2022-12-15T11:55:56.948Z,96426.34
2022-12-15T11:58:36.430Z,96421.44
2022-12-15T12:01:42.148Z,96422.13
2022-12-15T12:04:18.145Z,96424.44
2022-12-15T12:07:18.307Z,96444.81
2022-12-15T12:09:57.089Z,96436.59
2022-12-15T12:12:32.845Z,96440.63
2022-12-15T12:15:11.458Z,96435.06
2022-12-15T12:17:49.535Z,96448.66
2022-12-15T12:20:19.284Z,96449.78
2022-12-15T12:23:02.447Z,96455.78
2022-12-15T12:25:39.873Z,96427.22
2022-12-15T12:28:35.055Z,96460.44
2022-12-15T12:31:04.185Z,96414.53
2022-12-15T12:33:36.781Z,96432.78
2022-12-15T12:36:11.149Z,96462.38
2022-12-15T12:38:50.578Z,96410.91
2022-12-15T12:41:40.524Z,96466.72
2022-12-15T12:44:37.200Z,96477.13
2022-12-15T12:47:29.971Z,96525.63
2022-12-15T12:50:22.609Z,96467.16
2022-12-15T12:53:14.018Z,96492.97
2022-12-15T12:55:44.047Z,96502.47
2022-12-15T12:58:42.268Z,96503.28
2022-12-15T13:01:11.478Z,96503.28
2022-12-15T13:03:42.380Z,96511.16
2022-12-15T13:06:50.943Z,96505.22
2022-12-15T13:09:17.559Z,96507.16
2022-12-15T13:11:52.959Z,96520.72
2022-12-15T13:14:26.333Z,96519.97
2022-12-15T13:17:27.215Z,96543.50
2022-12-15T13:19:57.031Z,96541.53
2022-12-15T13:22:27.650Z,96457.50
2022-12-15T13:24:56.532Z,96555.84
2022-12-15T13:27:23.988Z,96481.72
2022-12-15T13:30:05.900Z,96572.56
2022-12-15T13:32:32.715Z,96576.16
2022-12-15T13:35:24.256Z,96571.81
2022-12-15T13:37:52.881Z,96572.25
2022-12-15T13:40:35.274Z,96574.22
2022-12-15T13:43:05.060Z,96567.88
2022-12-15T13:45:42.130Z,96573.88
2022-12-15T13:48:20.403Z,96544.91
2022-12-15T13:51:02.643Z,96571.91
2022-12-15T13:53:38.342Z,96575.50
2022-12-15T13:56:34.194Z,96573.94
2022-12-15T13:59:13.446Z,96565.66
2022-12-15T14:01:50.930Z,96568.03
2022-12-15T14:04:18.989Z,96530.72
2022-12-15T14:06:54.102Z,96556.91
2022-12-15T14:09:30.873Z,96477.91
2022-12-15T14:11:58.288Z,96568.06
2022-12-15T14:14:29.154Z,96531.91
2022-12-15T14:17:01.901Z,96575.63
2022-12-15T14:19:43.920Z,96582.34
2022-12-15T14:22:29.909Z,96531.84
2022-12-15T14:25:03.136Z,96582.31
2022-12-15T14:27:32.642Z,96588.63
2022-12-15T14:30:25.609Z,96604.44
2022-12-15T14:32:58.203Z,96481.81
2022-12-15T14:35:44.726Z,96598.69
2022-12-15T14:38:32.308Z,96617.59
2022-12-15T14:41:02.254Z,96611.94
2022-12-15T14:43:34.701Z,96611.06
2022-12-15T14:46:25.624Z,96612.56
2022-12-15T14:48:57.301Z,96617.97
2022-12-15T14:51:26.756Z,96604.28
2022-12-15T14:53:54.468Z,96628.13
2022-12-15T14:56:27.603Z,96631.09
2022-12-15T14:59:17.334Z,96602.31
2022-12-15T15:01:59.728Z,96633.19
2022-12-15T15:03:10.971Z,96407.63
2022-12-15T15:04:33.409Z,96642.50
2022-12-15T15:07:02.460Z,96649.44
2022-12-15T15:09:30.338Z,96644.34
2022-12-15T15:12:04.762Z,96647.72
2022-12-15T15:14:40.310Z,96651.38
2022-12-15T15:17:17.008Z,96652.09
2022-12-15T15:19:51.938Z,96651.31
2022-12-15T15:22:34.298Z,96666.22
2022-12-15T15:25:01.270Z,96594.44
2022-12-15T15:27:31.199Z,96665.03
2022-12-15T15:30:27.379Z,96670.06
2022-12-15T15:32:59.153Z,96675.53
2022-12-15T15:35:34.744Z,96640.53
2022-12-15T15:38:05.664Z,96687.41
2022-12-15T15:40:32.232Z,96688.78
2022-12-15T15:42:59.842Z,96691.72
2022-12-15T15:45:26.571Z,96688.28
2022-12-15T15:47:56.211Z,96702.06
2022-12-15T15:50:29.002Z,96709.81
2022-12-15T15:52:56.735Z,96679.19
2022-12-15T15:55:33.641Z,96718.38
2022-12-15T15:58:09.121Z,96725.22
2022-12-15T16:00:35.742Z,96720.84
2022-12-15T16:03:02.421Z,96729.00
2022-12-15T16:05:29.106Z,96747.00
2022-12-15T16:07:55.766Z,96820.50
2022-12-15T16:10:22.360Z,96735.59
2022-12-15T16:12:52.657Z,96746.22
2022-12-15T16:15:23.244Z,96746.25
2022-12-15T16:17:50.141Z,96750.47
2022-12-15T16:20:18.693Z,96725.59
2022-12-15T16:22:51.247Z,96746.88
2022-12-15T16:25:22.705Z,96755.50
2022-12-15T16:27:49.820Z,96761.69
2022-12-15T16:30:18.865Z,96763.44
2022-12-15T16:32:45.629Z,96771.97
2022-12-15T16:35:12.719Z,96778.22
2022-12-15T16:37:46.386Z,96774.94
2022-12-15T16:40:16.106Z,96782.25
2022-12-15T16:42:42.779Z,96800.59
2022-12-15T16:45:15.931Z,96806.03
2022-12-15T16:47:42.793Z,96800.38
2022-12-15T16:50:12.957Z,96816.03
2022-12-15T16:52:40.121Z,96813.00
2022-12-15T16:55:09.673Z,96800.47
2022-12-15T16:57:36.320Z,96827.06
2022-12-15T17:00:03.648Z,96882.94
2022-12-15T17:02:31.166Z,96833.56
2022-12-15T17:04:57.971Z,96843.09
2022-12-15T17:07:27.643Z,96852.78
2022-12-15T17:09:54.345Z,96835.97
2022-12-15T17:12:20.995Z,96844.00
2022-12-15T17:14:47.680Z,96810.38
2022-12-15T17:17:18.634Z,96807.22
2022-12-15T17:20:11.819Z,96848.34
2022-12-15T17:22:33.281Z,96853.50
2022-12-15T17:25:00.168Z,96848.59
2022-12-15T17:27:29.479Z,96851.66
2022-12-15T17:29:59.216Z,96861.97
2022-12-15T17:32:25.843Z,96865.69
2022-12-15T17:34:52.433Z,96871.31
2022-12-15T17:37:19.147Z,96871.31
2022-12-15T17:39:51.116Z,96876.97
2022-12-15T17:42:20.102Z,96894.13
2022-12-15T17:44:48.111Z,96876.28
2022-12-15T17:47:16.528Z,96857.44
2022-12-15T17:49:43.824Z,96886.06
2022-12-15T17:52:16.650Z,96883.97
2022-12-15T17:54:43.375Z,96928.38
2022-12-15T17:57:12.546Z,96888.97
2022-12-15T17:59:39.237Z,96816.03
2022-12-15T18:02:06.182Z,96882.59
2022-12-15T18:04:32.980Z,96880.09
2022-12-15T18:07:02.158Z,96865.22
2022-12-15T18:09:30.719Z,96835.31
2022-12-15T18:11:57.526Z,96800.56
2022-12-15T18:14:24.136Z,96885.03
2022-12-15T18:16:50.668Z,96884.41
2022-12-15T18:19:17.229Z,96886.81
2022-12-15T18:21:44.190Z,96893.50
2022-12-15T18:24:17.269Z,96891.94
2022-12-15T18:26:44.437Z,96900.75
2022-12-15T18:29:18.369Z,96897.16
2022-12-15T18:31:47.146Z,96898.72
2022-12-15T18:34:17.600Z,96860.78
2022-12-15T18:36:44.981Z,96909.91
2022-12-15T18:39:26.296Z,96915.31
2022-12-15T18:41:56.195Z,96912.13
2022-12-15T18:44:27.997Z,96888.28
2022-12-15T18:46:55.092Z,96902.50
2022-12-15T18:49:22.756Z,96830.38
2022-12-15T18:51:49.940Z,96892.69
2022-12-15T18:54:24.322Z,96853.19
2022-12-15T18:56:51.794Z,96844.84
2022-12-15T18:59:19.288Z,96959.81
2022-12-15T19:01:49.284Z,96903.22
2022-12-15T19:04:16.245Z,96913.25
2022-12-15T19:06:43.745Z,96922.31
2022-12-15T19:09:19.920Z,96908.19
2022-12-15T19:12:07.027Z,96908.91
2022-12-15T19:14:42.984Z,96903.41
2022-12-15T19:17:40.346Z,96860.25
2022-12-15T19:20:35.964Z,96902.59
2022-12-15T19:23:02.927Z,96917.94
2022-12-15T19:25:30.724Z,96918.06
2022-12-15T19:28:00.250Z,96919.63
2022-12-15T19:30:38.601Z,96907.94
2022-12-15T19:33:08.492Z,96845.44
2022-12-15T19:35:36.715Z,96917.56
2022-12-15T19:38:04.141Z,96897.91
2022-12-15T19:40:34.654Z,96817.53
2022-12-15T19:43:03.305Z,96937.38
2022-12-15T19:45:32.133Z,96922.50
2022-12-15T19:47:59.539Z,96933.56
2022-12-15T19:50:36.188Z,96840.69
2022-12-15T19:53:08.328Z,96889.13
2022-12-15T19:55:35.812Z,96929.88
2022-12-15T19:58:30.115Z,96880.88
2022-12-15T20:01:04.134Z,96923.69
2022-12-15T20:03:31.471Z,96921.97
2022-12-15T20:06:00.563Z,96908.16
2022-12-15T20:08:32.867Z,96920.28
2022-12-15T20:10:59.834Z,96927.59
2022-12-15T20:13:26.577Z,96903.13
2022-12-15T20:15:54.411Z,96941.00
2022-12-15T20:18:21.202Z,96867.69
2022-12-15T20:20:49.648Z,96954.44
2022-12-15T20:23:26.180Z,96963.63
2022-12-15T20:25:53.790Z,96964.19
2022-12-15T20:28:24.715Z,96964.16
2022-12-15T20:30:52.197Z,96961.47
2022-12-15T20:33:19.970Z,96970.22
2022-12-15T20:35:48.925Z,96959.47
2022-12-15T20:38:31.936Z,96811.13
2022-12-15T20:41:00.490Z,96974.03
2022-12-15T20:43:31.736Z,96978.84
2022-12-15T20:46:12.582Z,96931.16
2022-12-15T20:48:39.336Z,96976.56
2022-12-15T20:51:09.783Z,96978.16
2022-12-15T20:53:37.828Z,96983.66
2022-12-15T20:56:04.965Z,96998.13
2022-12-15T20:58:33.348Z,96987.56
2022-12-15T21:01:00.645Z,96979.66
2022-12-15T21:03:34.217Z,96983.91
2022-12-15T21:06:01.052Z,96989.97
2022-12-15T21:08:32.405Z,96968.53
2022-12-15T21:11:31.866Z,97004.53
2022-12-15T21:14:04.031Z,96938.22
2022-12-15T21:16:32.033Z,96957.25
2022-12-15T21:19:19.784Z,97016.91
2022-12-15T21:21:51.692Z,97015.06
2022-12-15T21:24:24.740Z,97021.72
2022-12-15T21:26:52.569Z,97003.81
2022-12-15T21:29:26.200Z,97024.28
2022-12-15T21:31:52.834Z,97001.56
2022-12-15T21:34:19.381Z,97022.13
2022-12-15T21:36:49.497Z,97030.13
2022-12-15T21:39:24.036Z,97020.63
2022-12-15T21:41:50.690Z,97031.06
2022-12-15T21:44:18.487Z,97028.91
2022-12-15T21:46:45.501Z,97030.69
2022-12-15T21:49:18.264Z,97024.19
2022-12-15T21:51:52.365Z,97023.44
2022-12-15T21:54:30.878Z,97027.31
2022-12-15T21:56:59.447Z,97041.28
2022-12-15T21:59:29.412Z,97038.31
2022-12-15T22:01:56.362Z,97036.72
2022-12-15T22:04:30.152Z,96998.59
2022-12-15T22:06:56.958Z,97030.72
2022-12-15T22:09:23.697Z,97036.59
2022-12-15T22:11:53.772Z,97023.75
2022-12-15T22:14:34.215Z,97003.56
2022-12-15T22:17:10.682Z,97025.50
2022-12-15T22:19:37.265Z,97022.63
2022-12-15T22:22:03.818Z,96904.44
2022-12-15T22:24:30.969Z,97024.50
2022-12-15T22:26:57.623Z,97025.06
2022-12-15T22:29:25.019Z,96944.38
2022-12-15T22:31:52.020Z,97003.84
2022-12-15T22:34:22.050Z,97020.34
2022-12-15T22:36:49.744Z,96955.19
2022-12-15T22:39:18.805Z,96974.69
2022-12-15T22:41:48.390Z,96900.41
2022-12-15T22:44:19.743Z,97011.19
2022-12-15T22:46:47.895Z,97006.16
2022-12-15T22:49:28.975Z,97009.63
2022-12-15T22:51:55.601Z,97002.06
2022-12-15T22:54:24.473Z,97006.56
2022-12-15T22:56:55.532Z,97012.25
2022-12-15T22:59:54.625Z,97010.75
2022-12-15T23:02:21.364Z,97014.66
2022-12-15T23:04:48.097Z,97011.22
2022-12-15T23:07:14.881Z,96993.78
2022-12-15T23:09:41.469Z,97000.03
2022-12-15T23:12:08.066Z,97008.97
2022-12-15T23:14:52.988Z,97003.91
2022-12-15T23:17:19.988Z,96960.81
2022-12-15T23:19:47.344Z,96998.34
2022-12-15T23:22:14.500Z,96961.91
2022-12-15T23:24:41.216Z,97002.31
2022-12-15T23:27:11.570Z,96986.50
2022-12-15T23:29:38.276Z,97002.06
2022-12-15T23:32:05.110Z,96996.59
2022-12-15T23:34:31.724Z,96994.28
2022-12-15T23:36:58.450Z,96986.25
2022-12-15T23:39:24.994Z,96990.34
2022-12-15T23:41:51.749Z,96971.13
2022-12-15T23:44:18.346Z,96972.97
2022-12-15T23:46:46.805Z,96949.22
2022-12-15T23:49:13.544Z,96966.09
2022-12-15T23:51:40.150Z,96950.69
2022-12-15T23:54:06.785Z,96910.31
2022-12-15T23:56:33.444Z,96925.16
2022-12-15T23:59:00.095Z,96982.88
